Latest Weather Observations for Townsville

IDQ60801

Issued at 12:02 pm EST Tuesday 31 May 2016 (issued every 30 minutes, with the page automatically refreshed every 10 minutes)

About weather observations | Map of weather stations | Latest weather observations for QLD | Other Formats
Station Details ID: 032040 Name: TOWNSVILLE AERO Lat: -19.25 Lon: 146.77 Height: 4.34 m
Data from the previous 72 hours. | See also: Recent months at Townsville
Date/Time
EST
Temp
°C
App
Temp
°C
Dew
Point
Rel
Hum
%
Delta-T
°C
Wind Press
QNH
hPa
Press
MSL
hPa
Rain
since 9 am
mm
Dir
 
Spd
km/h
Gust
km/h
Spd
kts
Gust
kts
31/12:00pm 28.7 24.8 17.0 49 7.3 E 33 35 18 19 1019.5 1019.5 -
31/11:30am 27.3 25.5 17.8 56 6.0 E 24 37 13 20 1019.8 1019.8 0.0
31/11:00am 26.7 23.3 17.8 58 5.6 ESE 32 41 17 22 1020.2 1020.2 0.0
31/10:30am 26.5 23.3 18.1 60 5.3 ESE 32 41 17 22 1020.4 1020.4 0.0
31/10:00am 25.6 22.6 18.7 65 4.4 ESE 32 41 17 22 1020.5 1020.5 0.0
31/09:30am 26.3 23.4 18.8 63 4.8 ESE 32 43 17 23 1020.5 1020.5 0.0
31/09:00am 25.3 22.5 19.4 70 3.8 ESE 33 44 18 24 1020.3 1020.3 0.0
31/08:30am 25.4 23.6 19.5 70 3.8 ESE 28 35 15 19 1020.0 1020.0 0.0
31/08:00am 24.7 25.5 19.9 74 3.1 SE 15 20 8 11 1019.7 1019.7 0.0
31/07:30am 23.7 24.2 20.0 80 2.4 SE 17 20 9 11 1019.3 1019.3 0.0
31/07:00am 22.6 23.9 20.1 86 1.6 SSE 13 15 7 8 1019.2 1019.2 0.0
31/06:30am 22.6 23.9 20.1 86 1.6 SSE 13 17 7 9 1019.0 1019.0 0.0
31/06:00am 23.0 24.3 20.2 84 1.8 SE 13 19 7 10 1018.7 1018.7 0.0
31/05:30am 23.2 24.6 20.3 84 1.9 SE 13 15 7 8 1018.5 1018.5 0.0
31/05:00am 23.1 24.5 20.3 84 1.8 SE 13 15 7 8 1018.5 1018.5 0.0
31/04:30am 23.3 24.4 20.4 84 1.9 SE 15 17 8 9 1018.4 1018.4 0.0
31/04:00am 23.4 24.5 20.5 84 1.9 SE 15 19 8 10 1018.4 1018.4 0.0
31/03:30am 24.0 24.7 20.5 81 2.3 ESE 17 24 9 13 1018.2 1018.2 0.0
31/03:00am 24.5 24.3 20.5 78 2.6 ESE 22 32 12 17 1018.0 1018.0 0.0
31/02:30am 24.5 24.4 20.7 79 2.5 ESE 22 32 12 17 1018.1 1018.1 0.0
31/02:00am 24.7 25.1 20.9 79 2.5 ESE 20 30 11 16 1018.4 1018.4 0.0
31/01:30am 25.1 25.5 21.0 78 2.7 ESE 20 30 11 16 1018.7 1018.7 0.0
31/01:00am 25.0 25.4 21.0 78 2.6 ESE 20 28 11 15 1018.8 1018.8 0.0
31/12:30am 24.8 25.2 21.0 79 2.5 E 20 30 11 16 1018.5 1018.5 0.0
31/12:00am 24.9 25.5 21.1 79 2.5 E 19 33 10 18 1018.6 1018.6 0.0
 
Date/Time
EST
Temp
°C
App
Temp
°C
Dew
Point
Rel
Hum
%
Delta-T
°C
Wind Press
QNH
hPa
Press
MSL
hPa
Rain
since 9 am
mm
Dir
 
Spd
km/h
Gust
km/h
Spd
kts
Gust
kts
30/11:30pm 24.7 25.3 21.0 80 2.4 ESE 19 26 10 14 1018.7 1018.7 0.0
30/11:00pm 24.4 25.0 21.0 81 2.2 ESE 19 28 10 15 1018.9 1018.9 0.0
30/10:30pm 24.8 25.1 20.8 78 2.6 ESE 20 32 11 17 1018.8 1018.8 0.0
30/10:00pm 24.8 26.0 20.7 78 2.7 E 15 19 8 10 1018.8 1018.8 0.0
30/09:30pm 24.7 25.9 20.7 78 2.6 ESE 15 20 8 11 1018.9 1018.9 0.0
30/09:00pm 24.8 25.1 20.7 78 2.7 ESE 20 33 11 18 1018.9 1018.9 0.0
30/08:30pm 24.9 25.8 20.9 78 2.6 ESE 17 24 9 13 1018.6 1018.6 0.0
30/08:00pm 25.1 25.5 20.7 76 2.9 ESE 19 24 10 13 1018.4 1018.4 0.0
30/07:30pm 25.2 26.1 20.8 76 2.9 ESE 17 20 9 11 1018.2 1018.2 0.0
30/07:00pm 25.3 26.2 20.9 76 2.9 ESE 17 26 9 14 1018.0 1018.0 0.0
30/06:30pm 25.4 26.4 20.3 73 3.3 E 15 20 8 11 1017.8 1017.8 0.0
30/06:00pm 25.4 26.9 21.2 77 2.8 ESE 15 19 8 10 1017.6 1017.6 0.0
30/05:30pm 25.4 26.0 21.3 78 2.7 E 20 26 11 14 1017.4 1017.4 0.0
30/05:00pm 25.9 26.9 21.0 74 3.2 ESE 17 24 9 13 1017.3 1017.3 0.0
30/04:30pm 26.0 28.4 21.6 76 2.9 E 11 15 6 8 1017.3 1017.3 0.0
30/04:28pm 26.1 28.8 21.4 75 3.1 E 9 15 5 8 1017.3 1017.3 0.0
30/04:00pm 26.0 29.7 21.5 76 3.0 SSW 4 9 2 5 1017.2 1017.2 0.0
30/03:30pm 25.6 28.4 21.5 78 2.7 WNW 9 13 5 7 1017.0 1017.0 0.0
30/03:00pm 25.7 28.5 21.5 77 2.8 W 9 13 5 7 1017.0 1017.0 0.0
30/02:30pm 25.7 28.1 21.5 77 2.8 W 11 15 6 8 1017.1 1017.1 0.0
30/02:00pm 25.4 28.5 21.5 79 2.6 NW 7 11 4 6 1017.2 1017.2 0.0
30/01:30pm 24.8 27.4 21.2 80 2.4 WNW 9 13 5 7 1017.5 1017.5 0.0
30/01:00pm 24.5 26.4 21.3 82 2.1 WNW 13 19 7 10 1017.9 1017.9 0.0
30/12:47pm 24.6 26.5 21.4 82 2.1 WNW 13 17 7 9 1018.1 1018.1 0.0
30/12:30pm 24.6 26.5 21.4 82 2.1 NNW 13 17 7 9 1018.3 1018.3 0.0
30/12:19pm 24.1 25.8 21.0 83 2.0 NNW 13 17 7 9 1018.6 1018.6 0.0
30/12:00pm 23.8 24.5 20.4 81 2.2 NNW 17 20 9 11 1019.0 1019.0 0.0
30/11:30am 26.4 27.7 20.9 72 3.6 ENE 15 19 8 10 1019.3 1019.3 0.0
30/11:00am 27.3 28.8 21.3 69 4.0 ESE 15 24 8 13 1019.4 1019.4 0.0
30/10:30am 26.5 27.1 21.0 72 3.6 ESE 19 32 10 17 1019.6 1019.6 0.0
30/10:00am 26.5 27.5 21.0 72 3.6 ESE 17 22 9 12 1019.6 1019.6 0.0
30/09:30am 26.2 26.6 21.0 73 3.4 ESE 20 28 11 15 1019.5 1019.5 0.0
30/09:00am 25.8 26.2 20.9 74 3.2 ESE 20 30 11 16 1019.1 1019.1 0.0
30/08:30am 25.3 26.9 20.7 75 3.0 SE 13 22 7 12 1019.0 1019.0 0.0
30/08:00am 24.3 26.5 20.5 79 2.5 SE 9 13 5 7 1018.7 1018.7 0.0
30/07:30am 23.4 26.0 20.5 84 1.9 E 7 13 4 7 1018.2 1018.2 0.0
30/07:00am 23.4 25.2 20.3 83 2.0 SSE 11 15 6 8 1017.8 1017.8 0.0
30/06:30am 23.8 25.8 20.7 83 2.0 SSE 11 17 6 9 1017.9 1017.9 0.0
30/06:00am 23.8 25.3 20.6 82 2.1 SE 13 17 7 9 1017.4 1017.4 0.0
30/05:30am 23.8 25.0 20.6 82 2.1 SE 15 20 8 11 1017.2 1017.2 0.0
30/05:00am 23.7 24.6 20.8 84 1.9 SE 17 20 9 11 1016.8 1016.8 0.0
30/04:30am 23.7 24.6 20.9 84 1.8 ESE 17 26 9 14 1016.4 1016.4 0.0
30/04:00am 24.2 25.7 21.2 83 2.0 SE 15 20 8 11 1016.5 1016.5 0.0
30/03:30am 24.3 25.7 21.1 82 2.1 SE 15 19 8 10 1016.7 1016.7 0.0
30/03:00am 24.4 26.4 21.5 84 1.9 SE 13 17 7 9 1016.8 1016.8 0.0
30/02:46am 24.4 25.6 21.4 83 2.0 SE 17 20 9 11 1016.7 1016.7 0.0
30/02:31am 24.6 26.5 21.3 82 2.2 ESE 13 17 7 9 1016.9 1016.9 0.0
30/02:30am 24.6 26.5 21.4 82 2.1 SE 13 17 7 9 1016.9 1016.9 0.0
30/02:00am 24.6 26.9 21.4 82 2.1 SE 11 17 6 9 1017.0 1017.0 0.0
30/01:30am 24.6 26.2 21.4 82 2.1 ESE 15 19 8 10 1016.9 1016.9 0.0
30/01:00am 24.7 25.7 21.0 80 2.4 ESE 17 24 9 13 1017.0 1017.0 0.0
30/12:30am 24.9 25.9 21.1 79 2.5 SE 17 19 9 10 1017.3 1017.3 0.0
30/12:00am 25.3 26.5 21.5 79 2.5 ESE 17 24 9 13 1017.4 1017.4 0.0
 
Date/Time
EST
Temp
°C
App
Temp
°C
Dew
Point
Rel
Hum
%
Delta-T
°C
Wind Press
QNH
hPa
Press
MSL
hPa
Rain
since 9 am
mm
Dir
 
Spd
km/h
Gust
km/h
Spd
kts
Gust
kts
29/11:50pm 25.3 26.5 21.5 79 2.5 ESE 17 24 9 13 1017.4 1017.4 0.0
29/11:30pm 25.0 27.0 21.5 81 2.3 SE 13 17 7 9 1017.4 1017.4 0.0
29/11:00pm 25.3 27.8 21.7 80 2.4 ESE 11 13 6 7 1017.5 1017.5 0.0
29/10:30pm 24.9 27.7 21.6 82 2.2 E 9 15 5 8 1017.6 1017.6 0.0
29/10:23pm 25.0 27.4 21.5 81 2.3 ESE 11 15 6 8 1017.6 1017.6 0.0
29/10:00pm 25.0 27.3 21.4 80 2.4 E 11 13 6 7 1017.4 1017.4 0.0
29/09:30pm 25.0 27.8 21.5 81 2.3 E 9 13 5 7 1017.6 1017.6 0.0
29/09:00pm 24.8 27.4 21.2 80 2.4 SE 9 13 5 7 1017.7 1017.7 0.0
29/08:30pm 24.7 26.8 21.0 80 2.4 SE 11 15 6 8 1017.5 1017.5 0.0
29/08:00pm 24.9 26.2 20.9 78 2.6 ESE 15 19 8 10 1017.1 1017.1 0.0
29/07:30pm 25.0 26.1 21.2 79 2.5 E 17 22 9 12 1017.1 1017.1 0.0
29/07:00pm 25.0 26.5 21.2 79 2.5 ENE 15 19 8 10 1016.7 1016.7 0.0
29/06:30pm 25.1 26.2 21.3 79 2.5 ENE 17 24 9 13 1016.2 1016.2 0.0
29/06:00pm 25.1 26.0 21.6 81 2.3 ENE 19 24 10 13 1016.1 1016.1 0.0
29/05:30pm 25.4 26.4 21.8 80 2.4 ENE 19 26 10 14 1015.7 1015.7 0.0
29/05:00pm 26.1 26.4 21.6 76 3.0 ENE 22 28 12 15 1015.6 1015.6 0.0
29/04:30pm 26.7 26.6 21.4 72 3.5 ENE 24 30 13 16 1015.3 1015.3 0.0
29/04:00pm 26.7 26.6 21.4 72 3.5 ENE 24 28 13 15 1015.3 1015.3 0.0
29/03:30pm 27.6 27.3 21.1 67 4.3 ENE 24 30 13 16 1015.2 1015.2 0.0
29/03:00pm 27.5 27.0 21.5 70 4.0 ENE 26 30 14 16 1015.1 1015.1 0.0
29/02:30pm 27.9 27.2 19.4 60 5.5 NE 22 28 12 15 1015.0 1015.0 0.0
29/02:00pm 28.3 27.5 18.5 55 6.3 ENE 20 28 11 15 1015.0 1015.0 0.0
29/01:30pm 28.7 27.6 18.6 54 6.5 NE 22 28 12 15 1015.0 1015.0 0.0
29/01:00pm 29.0 26.9 17.1 48 7.5 ENE 24 30 13 16 1015.1 1015.1 0.0
29/12:30pm 29.2 26.7 16.1 45 8.1 NE 24 32 13 17 1015.4 1015.4 0.0
29/12:00pm 29.4 27.0 14.5 40 9.0 ENE 20 26 11 14 1015.8 1015.8 0.0
29/11:30am 30.0 28.5 15.3 41 9.0 NE 17 28 9 15 1016.1 1016.1 0.0
29/11:00am 29.1 28.4 15.4 43 8.4 NE 13 20 7 11 1016.6 1016.6 0.0
29/10:30am 28.7 27.8 13.8 40 8.9 ESE 11 15 6 8 1016.9 1016.9 0.0
29/10:00am 27.9 28.0 15.6 47 7.5 ESE 9 15 5 8 1017.1 1017.1 0.0
29/09:30am 27.0 28.9 18.9 61 5.2 SSE 7 11 4 6 1017.3 1017.3 0.0
29/09:00am 26.4 27.7 19.4 65 4.5 SSW 11 17 6 9 1017.2 1017.2 0.0
29/08:30am 25.0 24.8 18.5 67 4.1 SSW 17 19 9 10 1016.9 1016.9 0.0
29/08:00am 22.9 26.7 20.1 84 1.8 CALM 0 0 0 0 1016.8 1016.8 0.0
29/07:30am 21.4 25.1 20.0 92 0.9 CALM 0 0 0 0 1016.6 1016.6 0.0
29/07:00am 20.8 24.4 19.7 93 0.7 CALM 0 0 0 0 1016.2 1016.2 0.0
29/06:30am 20.5 24.0 19.6 95 0.6 CALM 0 0 0 0 1015.8 1015.8 0.0
29/06:00am 20.0 23.3 19.0 94 0.6 CALM 0 0 0 0 1015.4 1015.4 0.0
29/05:30am 20.7 24.3 19.8 95 0.6 CALM 0 0 0 0 1015.0 1015.0 0.0
29/05:00am 20.1 23.4 19.1 94 0.6 CALM 0 0 0 0 1014.7 1014.7 0.0
29/04:30am 21.0 24.6 19.7 92 0.8 CALM 0 0 0 0 1014.5 1014.5 0.0
29/04:00am 21.1 24.8 20.0 93 0.7 CALM 0 0 0 0 1014.4 1014.4 0.0
29/03:30am 21.1 24.4 19.0 88 1.3 CALM 0 0 0 0 1014.3 1014.3 0.0
29/03:00am 22.4 26.6 21.0 92 0.9 CALM 0 0 0 0 1014.3 1014.3 0.0
29/02:30am 21.5 24.8 19.9 91 1.0 SSW 2 9 1 5 1014.3 1014.3 0.0
29/02:00am 21.6 25.3 20.0 91 1.0 CALM 0 0 0 0 1014.5 1014.5 0.0
29/01:53am 21.5 25.3 20.1 92 0.9 CALM 0 0 0 0 1014.6 1014.6 0.0
29/01:37am 21.1 24.7 19.7 92 0.9 CALM 0 0 0 0 1014.6 1014.6 0.0
29/01:35am 21.2 24.8 19.8 92 0.9 CALM 0 0 0 0 1014.6 1014.6 0.0
29/01:30am 21.3 25.1 20.1 93 0.8 CALM 0 0 0 0 1014.6 1014.6 0.0
29/01:20am 21.0 24.6 19.7 92 0.8 CALM 0 0 0 0 1014.7 1014.7 0.0
29/01:00am 21.3 24.9 19.7 91 1.0 CALM 0 0 0 0 1014.7 1014.7 0.0
29/12:30am 22.2 26.2 20.5 90 1.1 CALM 0 0 0 0 1014.8 1014.8 0.0
29/12:00am 22.9 27.1 20.9 88 1.3 CALM 0 0 0 0 1014.9 1014.9 0.0
 
Date/Time
EST
Temp
°C
App
Temp
°C
Dew
Point
Rel
Hum
%
Delta-T
°C
Wind Press
QNH
hPa
Press
MSL
hPa
Rain
since 9 am
mm
Dir
 
Spd
km/h
Gust
km/h
Spd
kts
Gust
kts
28/11:30pm 23.8 25.8 20.7 83 2.0 SSW 11 13 6 7 1015.1 1015.1 0.0
28/11:07pm 24.1 26.7 21.2 84 1.9 S 9 9 5 5 1015.3 1015.3 0.0
28/11:00pm 24.4 27.5 21.4 83 2.0 S 7 9 4 5 1015.3 1015.3 0.0
28/10:30pm 24.5 28.6 22.9 91 1.1 E 6 11 3 6 1015.3 1015.3 0.0
28/10:00pm 23.8 28.6 22.8 94 0.7 NNE 2 7 1 4 1015.2 1015.2 0.0
28/09:30pm 25.0 30.0 23.2 90 1.2 ESE 2 7 1 4 1015.1 1015.1 0.0
28/09:00pm 25.0 30.5 23.4 91 1.1 CALM 0 0 0 0 1015.0 1015.0 0.0
28/08:34pm 24.8 30.2 23.3 91 1.0 CALM 0 0 0 0 1014.9 1014.9 0.0
28/08:30pm 24.8 30.4 23.5 92 0.9 CALM 0 0 0 0 1014.9 1014.9 0.0
28/08:00pm 25.0 30.6 23.5 91 1.0 CALM 0 0 0 0 1014.7 1014.7 0.0
28/07:30pm 25.1 29.2 23.3 90 1.2 ESE 7 9 4 5 1014.5 1014.5 0.0
28/07:00pm 25.1 28.7 23.0 88 1.4 SE 9 13 5 7 1014.1 1014.1 0.0
28/06:30pm 25.3 27.7 22.9 86 1.6 E 15 19 8 10 1013.7 1013.7 0.0
28/06:00pm 25.5 27.8 22.7 84 1.9 ENE 15 20 8 11 1013.4 1013.4 0.0
28/05:30pm 26.1 26.7 21.4 75 3.1 ENE 20 28 11 15 1013.1 1013.1 0.0
28/05:00pm 26.8 25.9 20.6 69 4.1 ENE 26 32 14 17 1012.9 1012.9 0.0
28/04:30pm 27.8 27.1 21.0 66 4.5 ENE 26 32 14 17 1012.5 1012.5 0.0
28/04:00pm 29.1 27.4 18.9 54 6.6 ENE 26 32 14 17 1012.2 1012.2 0.0
28/03:30pm 30.1 27.4 15.5 41 9.0 ENE 24 28 13 15 1012.0 1012.0 0.0
28/03:00pm 30.6 28.5 15.1 39 9.5 NE 20 26 11 14 1012.0 1012.0 0.0
28/02:30pm 30.2 28.1 15.2 40 9.2 ENE 20 26 11 14 1012.3 1012.3 0.0
28/02:00pm 31.2 29.1 14.7 36 10.1 NE 19 22 10 12 1012.6 1012.6 0.0
28/01:30pm 30.1 27.6 14.2 38 9.6 ENE 20 24 11 13 1012.8 1012.8 0.0
28/01:00pm 30.3 28.4 14.3 37 9.7 ENE 17 20 9 11 1013.3 1013.3 0.0
28/12:30pm 30.9 29.0 13.1 33 10.6 SSW 15 20 8 11 1013.7 1013.7 0.0

Other Formats:

Comma delimited format used in spreadsheet applications
http://www.bom.gov.au/fwo/IDQ60801/IDQ60801.94294.axf

JavaScript Object Notation format (JSON) in row-major order
http://www.bom.gov.au/fwo/IDQ60801/IDQ60801.94294.json